Little Amwell, United Kingdom
Current Conditions -  °F | °C
As of 7:50 AM on Saturday 25 Oct 2014 (Local Time) from EGSS Reporting Station
Haze Haze  
Wind Chill: 36°   Ceiling: Unl
Heat Index: 41°   Visibility: 2.8mi
Dew Point: 41°   Wind: 7mph
Humidity: 100%   Direction: 220°SW
Pressure: 30.03"   Gusts: NA
Location:  51.78°N, 0.03°W
Report Text: EGSS 250650Z 22006KT 4500 BR NSC 05/05 Q1017
Loading
Personal Weather Stations






























Interactive Weather Map
Tropical Storm Tracking
New forecast layout! Learn more

10-Day Weather Forecast

Advertisements
Track Severe Weather on mobile